createdAt,value
2023-05-21T00:00:44.914Z,16.11
2023-05-21T00:03:14.580Z,16.19
2023-05-21T00:05:42.069Z,16.28
2023-05-21T00:08:09.444Z,16.29
2023-05-21T00:10:36.845Z,16.44
2023-05-21T00:13:04.172Z,16.59
2023-05-21T00:15:31.458Z,16.61
2023-05-21T00:17:58.801Z,16.33
2023-05-21T00:20:26.171Z,16.53
2023-05-21T00:22:53.562Z,16.50
2023-05-21T00:25:20.984Z,16.30
2023-05-21T00:27:49.303Z,16.34
2023-05-21T00:30:17.009Z,16.33
2023-05-21T00:32:44.496Z,15.78
2023-05-21T00:35:12.052Z,15.84
2023-05-21T00:37:39.323Z,15.80
2023-05-21T00:40:08.998Z,15.60
2023-05-21T00:42:39.343Z,15.74
2023-05-21T00:45:07.849Z,15.76
2023-05-21T00:47:35.908Z,15.72
2023-05-21T00:50:04.208Z,15.84
2023-05-21T00:52:31.485Z,15.68
2023-05-21T00:54:58.847Z,15.88
2023-05-21T00:57:27.219Z,16.14
2023-05-21T00:59:54.687Z,15.97
2023-05-21T01:02:24.472Z,15.71
2023-05-21T01:04:54.759Z,15.95
2023-05-21T01:07:22.059Z,15.88
2023-05-21T01:09:49.620Z,15.91
2023-05-21T01:12:18.059Z,15.92
2023-05-21T01:14:45.902Z,16.15
2023-05-21T01:17:13.845Z,16.08
2023-05-21T01:19:42.686Z,15.58
2023-05-21T01:22:10.882Z,15.69
2023-05-21T01:24:38.318Z,15.57
2023-05-21T01:27:07.714Z,15.63
2023-05-21T01:29:35.137Z,15.69
2023-05-21T01:32:09.872Z,15.52
2023-05-21T01:34:43.301Z,15.56
2023-05-21T01:37:24.376Z,15.92
2023-05-21T01:40:04.001Z,15.87
2023-05-21T01:42:32.284Z,15.42
2023-05-21T01:45:00.298Z,15.47
2023-05-21T01:47:29.476Z,15.67
2023-05-21T01:49:57.083Z,15.80
2023-05-21T01:52:24.599Z,15.89
2023-05-21T01:54:54.335Z,15.70
2023-05-21T01:57:21.726Z,15.47
2023-05-21T01:59:49.070Z,15.57
2023-05-21T02:02:16.632Z,15.52
2023-05-21T02:04:44.315Z,15.30
2023-05-21T02:07:14.582Z,15.53
2023-05-21T02:09:41.974Z,15.47
2023-05-21T02:12:09.310Z,15.58
2023-05-21T02:14:38.355Z,15.62
2023-05-21T02:17:05.772Z,15.44
2023-05-21T02:19:33.072Z,15.10
2023-05-21T02:22:00.513Z,15.12
2023-05-21T02:24:27.780Z,15.09
2023-05-21T02:26:55.022Z,14.99
2023-05-21T02:29:22.368Z,15.31
2023-05-21T02:31:50.985Z,14.99
2023-05-21T02:34:20.776Z,15.18
2023-05-21T02:36:54.713Z,15.16
2023-05-21T02:39:22.396Z,15.51
2023-05-21T02:41:49.679Z,15.56
2023-05-21T02:44:19.034Z,15.07
2023-05-21T02:46:46.408Z,15.43
2023-05-21T02:49:13.821Z,15.36
2023-05-21T02:51:42.473Z,15.14
2023-05-21T02:54:09.766Z,14.98
2023-05-21T02:56:37.086Z,14.91
2023-05-21T02:59:04.413Z,14.87
2023-05-21T03:01:32.023Z,14.61
2023-05-21T03:03:59.382Z,14.68
2023-05-21T03:06:26.693Z,14.70
2023-05-21T03:08:54.117Z,14.55
2023-05-21T03:11:22.495Z,14.61
2023-05-21T03:13:50.004Z,14.89
2023-05-21T03:16:17.624Z,14.93
2023-05-21T03:18:45.145Z,14.77
2023-05-21T03:21:13.273Z,14.73
2023-05-21T03:23:41.888Z,14.70
2023-05-21T03:26:09.260Z,14.70
2023-05-21T03:28:36.517Z,14.78
2023-05-21T03:31:04.197Z,14.98
2023-05-21T03:33:46.106Z,14.89
2023-05-21T03:36:21.769Z,15.05
2023-05-21T03:38:49.168Z,14.95
2023-05-21T03:41:16.487Z,14.77
2023-05-21T03:43:47.441Z,14.59
2023-05-21T03:46:14.942Z,14.48
2023-05-21T03:49:05.991Z,14.38
2023-05-21T03:51:36.044Z,14.29
2023-05-21T03:54:03.231Z,14.37
2023-05-21T03:56:31.290Z,14.47
2023-05-21T03:58:58.574Z,14.48
2023-05-21T04:01:28.345Z,14.84
2023-05-21T04:03:56.315Z,14.85
2023-05-21T04:06:25.534Z,14.87
2023-05-21T04:08:52.864Z,14.58
2023-05-21T04:11:20.214Z,14.48
2023-05-21T04:13:48.942Z,14.46
2023-05-21T04:16:19.277Z,14.43
2023-05-21T04:18:47.366Z,14.53
2023-05-21T04:21:16.377Z,14.56
2023-05-21T04:23:43.992Z,14.31
2023-05-21T04:26:23.810Z,14.38
2023-05-21T04:28:51.250Z,14.54
2023-05-21T04:31:18.667Z,14.51
2023-05-21T04:33:46.209Z,14.47
2023-05-21T04:36:13.737Z,14.49
2023-05-21T04:38:41.891Z,14.60
2023-05-21T04:41:10.807Z,14.54
2023-05-21T04:43:38.376Z,14.56
2023-05-21T04:46:06.071Z,14.41
2023-05-21T04:48:34.477Z,14.59
2023-05-21T04:51:01.964Z,14.47
2023-05-21T04:53:29.955Z,14.31
2023-05-21T04:55:59.454Z,14.50
2023-05-21T04:58:28.014Z,14.50
2023-05-21T05:00:56.034Z,14.57
2023-05-21T05:03:23.494Z,14.66
2023-05-21T05:05:51.607Z,15.14
2023-05-21T05:08:18.971Z,15.23
2023-05-21T05:10:46.451Z,15.44
2023-05-21T05:13:13.836Z,15.59
2023-05-21T05:15:41.461Z,15.57
2023-05-21T05:18:09.114Z,15.21
2023-05-21T05:20:36.481Z,15.67
2023-05-21T05:23:03.786Z,15.83
2023-05-21T05:25:31.203Z,15.77
2023-05-21T05:27:58.864Z,15.25
2023-05-21T05:30:26.282Z,15.54
2023-05-21T05:32:56.880Z,15.67
2023-05-21T05:35:24.730Z,15.59
2023-05-21T05:37:52.082Z,15.30
2023-05-21T05:40:19.417Z,15.37
2023-05-21T05:42:46.907Z,15.64
2023-05-21T05:45:16.272Z,15.31
2023-05-21T05:47:45.684Z,15.25
2023-05-21T05:50:13.069Z,15.15
2023-05-21T05:52:41.048Z,15.26
2023-05-21T05:55:09.053Z,15.04
2023-05-21T05:57:36.617Z,15.01
2023-05-21T06:00:12.847Z,14.92
2023-05-21T06:02:41.026Z,15.21
2023-05-21T06:05:10.059Z,15.19
2023-05-21T06:07:38.575Z,15.16
2023-05-21T06:10:06.998Z,15.08
2023-05-21T06:12:34.509Z,15.43
2023-05-21T06:15:01.914Z,15.50
2023-05-21T06:17:29.884Z,15.90
2023-05-21T06:19:57.561Z,15.73
2023-05-21T06:22:25.888Z,15.56
2023-05-21T06:24:53.584Z,15.37
2023-05-21T06:27:21.738Z,15.51
2023-05-21T06:29:50.044Z,15.61
2023-05-21T06:32:17.621Z,15.76
2023-05-21T06:34:45.017Z,15.70
2023-05-21T06:37:12.366Z,15.78
2023-05-21T06:39:39.654Z,15.55
2023-05-21T06:42:07.350Z,15.96
2023-05-21T06:44:54.825Z,15.99
2023-05-21T06:47:43.777Z,16.22
2023-05-21T06:50:11.288Z,16.05
2023-05-21T06:52:38.608Z,16.12
2023-05-21T06:55:08.178Z,15.90
2023-05-21T06:58:00.870Z,15.81
2023-05-21T07:00:28.189Z,15.63
2023-05-21T07:02:55.764Z,16.02
2023-05-21T07:05:23.122Z,16.21
2023-05-21T07:07:50.704Z,15.90
2023-05-21T07:10:18.051Z,15.88
2023-05-21T07:12:45.488Z,16.04
2023-05-21T07:15:12.846Z,16.12
2023-05-21T07:17:40.216Z,16.25
2023-05-21T07:20:09.927Z,16.24
2023-05-21T07:22:39.419Z,16.09
2023-05-21T07:25:09.151Z,16.31
2023-05-21T07:27:36.486Z,16.37
2023-05-21T07:30:04.996Z,16.56
2023-05-21T07:32:33.099Z,16.59
2023-05-21T07:35:03.957Z,16.77
2023-05-21T07:37:32.200Z,16.46
2023-05-21T07:40:00.005Z,16.66
2023-05-21T07:42:27.382Z,16.88
2023-05-21T07:44:56.784Z,16.95
2023-05-21T07:47:26.003Z,17.14
2023-05-21T07:49:53.459Z,17.12
2023-05-21T07:52:21.256Z,17.19
2023-05-21T07:54:48.662Z,17.26
2023-05-21T07:57:16.618Z,17.64
2023-05-21T07:59:59.871Z,17.73
2023-05-21T08:02:27.426Z,17.72
2023-05-21T08:04:55.283Z,17.73
2023-05-21T08:07:22.834Z,17.77
2023-05-21T08:09:50.202Z,17.73
2023-05-21T08:12:19.223Z,17.83
2023-05-21T08:14:46.446Z,17.69
2023-05-21T08:17:16.467Z,17.75
2023-05-21T08:19:44.627Z,17.74
2023-05-21T08:22:12.113Z,17.47
2023-05-21T08:24:42.773Z,17.41
2023-05-21T08:27:10.259Z,17.27
2023-05-21T08:29:38.116Z,17.33
2023-05-21T08:32:06.905Z,17.42
2023-05-21T08:34:34.276Z,17.40
2023-05-21T08:37:18.425Z,17.21
2023-05-21T08:40:00.907Z,17.25
2023-05-21T08:42:43.909Z,17.38
2023-05-21T08:45:22.365Z,17.52
2023-05-21T08:47:59.625Z,17.57
2023-05-21T08:50:31.540Z,17.40
2023-05-21T08:53:07.508Z,17.45
2023-05-21T08:55:43.901Z,17.73
2023-05-21T08:58:13.680Z,18.03
2023-05-21T09:00:41.178Z,17.93
2023-05-21T09:03:12.450Z,18.13
2023-05-21T09:05:42.332Z,18.38
2023-05-21T09:08:22.091Z,18.40
2023-05-21T09:11:08.619Z,17.84
2023-05-21T09:13:43.748Z,18.21
2023-05-21T09:16:17.554Z,18.04
2023-05-21T09:18:45.890Z,18.23
2023-05-21T09:21:24.490Z,18.25
2023-05-21T09:23:57.292Z,18.21
2023-05-21T09:26:25.730Z,18.28
2023-05-21T09:28:58.373Z,18.14
2023-05-21T09:31:26.906Z,17.90
2023-05-21T09:33:55.803Z,18.04
2023-05-21T09:36:24.484Z,18.13
2023-05-21T09:38:52.437Z,18.14
2023-05-21T09:41:22.118Z,18.17
2023-05-21T09:43:49.892Z,18.04
2023-05-21T09:46:21.864Z,18.41
2023-05-21T09:48:49.265Z,18.30
2023-05-21T09:51:20.466Z,18.00
2023-05-21T09:53:57.884Z,18.12
2023-05-21T09:56:26.857Z,18.21
2023-05-21T09:58:55.138Z,18.27
2023-05-21T10:01:23.979Z,18.56
2023-05-21T10:03:57.186Z,18.39
2023-05-21T10:06:27.101Z,18.29
2023-05-21T10:08:59.821Z,18.47
2023-05-21T10:11:28.027Z,18.60
2023-05-21T10:14:01.606Z,18.69
2023-05-21T10:16:29.832Z,18.71
2023-05-21T10:18:58.153Z,18.55
2023-05-21T10:21:26.595Z,18.66
2023-05-21T10:23:57.128Z,18.88
2023-05-21T10:26:25.160Z,18.94
2023-05-21T10:28:52.494Z,19.22
2023-05-21T10:31:20.161Z,18.96
2023-05-21T10:33:48.964Z,19.11
2023-05-21T10:36:20.262Z,18.93
2023-05-21T10:38:47.955Z,18.86
2023-05-21T10:41:16.271Z,19.08
2023-05-21T10:44:01.588Z,19.33
2023-05-21T10:46:38.024Z,18.84
2023-05-21T10:49:30.697Z,19.08
2023-05-21T10:52:25.951Z,19.32
2023-05-21T10:55:12.877Z,19.43
2023-05-21T10:57:59.744Z,19.14
2023-05-21T11:00:27.660Z,19.40
2023-05-21T11:02:55.983Z,19.71
2023-05-21T11:05:57.547Z,19.62
2023-05-21T11:08:25.920Z,19.71
2023-05-21T11:10:54.971Z,19.64
2023-05-21T11:13:25.046Z,19.81
2023-05-21T11:15:58.313Z,19.76
2023-05-21T11:18:46.176Z,19.64
2023-05-21T11:21:18.698Z,20.01
2023-05-21T11:23:52.463Z,19.72
2023-05-21T11:26:24.169Z,19.67
2023-05-21T11:29:03.397Z,19.90
2023-05-21T11:31:38.330Z,20.07
2023-05-21T11:34:15.145Z,19.86
2023-05-21T11:36:48.288Z,19.79
2023-05-21T11:39:24.039Z,19.89
2023-05-21T11:41:54.896Z,20.08
2023-05-21T11:44:39.452Z,20.30
2023-05-21T11:47:08.177Z,19.92
2023-05-21T11:49:36.640Z,20.17
2023-05-21T11:52:05.633Z,20.30
2023-05-21T11:54:37.605Z,20.32
2023-05-21T11:57:08.553Z,20.30
2023-05-21T11:59:37.131Z,20.09
2023-05-21T12:02:05.289Z,20.27
2023-05-21T12:04:32.983Z,20.29
2023-05-21T12:07:05.098Z,20.41
2023-05-21T12:09:39.047Z,20.51
2023-05-21T12:12:08.946Z,20.74
2023-05-21T12:14:37.363Z,20.69
2023-05-21T12:17:05.868Z,20.63
2023-05-21T12:19:37.663Z,20.56
2023-05-21T12:22:05.961Z,20.80
2023-05-21T12:24:34.621Z,21.21
2023-05-21T12:27:02.984Z,20.76
2023-05-21T12:29:31.830Z,20.89
2023-05-21T12:32:00.533Z,20.80
2023-05-21T12:34:46.786Z,20.79
2023-05-21T12:37:24.428Z,20.69
2023-05-21T12:39:53.068Z,20.46
2023-05-21T12:42:30.791Z,20.58
2023-05-21T12:44:58.480Z,20.67
2023-05-21T12:47:27.373Z,20.85
2023-05-21T12:49:58.090Z,21.09
2023-05-21T12:52:27.219Z,20.98
2023-05-21T12:54:56.584Z,21.19
2023-05-21T12:57:25.112Z,20.71
2023-05-21T12:59:56.880Z,20.80
2023-05-21T13:02:24.134Z,20.67
2023-05-21T13:04:58.259Z,20.42
2023-05-21T13:07:26.575Z,20.45
2023-05-21T13:09:54.589Z,20.52
2023-05-21T13:12:23.897Z,20.78
2023-05-21T13:14:51.688Z,20.90
2023-05-21T13:17:19.889Z,20.99
2023-05-21T13:20:18.402Z,20.91
2023-05-21T13:22:49.995Z,21.55
2023-05-21T13:25:20.989Z,21.25
2023-05-21T13:27:49.326Z,20.81
2023-05-21T13:30:17.423Z,21.19
2023-05-21T13:32:45.201Z,21.38
2023-05-21T13:35:13.127Z,20.99
2023-05-21T13:37:41.062Z,21.36
2023-05-21T13:40:15.522Z,21.60
2023-05-21T13:42:47.889Z,21.49
2023-05-21T13:45:17.291Z,21.38
2023-05-21T13:47:46.237Z,21.31
2023-05-21T13:50:14.048Z,21.41
2023-05-21T13:52:41.678Z,21.38
2023-05-21T13:55:10.534Z,21.12
2023-05-21T13:57:37.979Z,21.01
2023-05-21T14:00:06.065Z,20.95
2023-05-21T14:02:35.295Z,20.97
2023-05-21T14:05:02.736Z,21.07
2023-05-21T14:07:30.217Z,21.32
2023-05-21T14:09:58.211Z,21.12
2023-05-21T14:12:26.688Z,21.38
2023-05-21T14:14:53.950Z,21.22
2023-05-21T14:17:21.285Z,21.14
2023-05-21T14:19:48.704Z,21.41
2023-05-21T14:22:16.071Z,21.27
2023-05-21T14:24:43.404Z,21.36
2023-05-21T14:27:11.395Z,21.28
2023-05-21T14:29:39.555Z,21.12
2023-05-21T14:32:07.579Z,21.30
2023-05-21T14:34:35.039Z,21.14
2023-05-21T14:37:02.339Z,21.39
2023-05-21T14:39:29.750Z,21.47
2023-05-21T14:41:57.132Z,21.50
2023-05-21T14:44:24.446Z,21.50
2023-05-21T14:46:51.759Z,21.52
2023-05-21T14:49:19.150Z,21.48
2023-05-21T14:51:47.631Z,21.37
2023-05-21T14:54:14.975Z,21.17
2023-05-21T14:56:42.358Z,21.31
2023-05-21T14:59:11.475Z,21.30
2023-05-21T15:01:39.195Z,21.60
2023-05-21T15:04:08.042Z,21.55
2023-05-21T15:06:35.519Z,21.58
2023-05-21T15:09:02.999Z,21.68
2023-05-21T15:11:30.321Z,21.72
2023-05-21T15:13:57.837Z,21.43
2023-05-21T15:16:25.278Z,21.36
2023-05-21T15:18:53.483Z,21.42
2023-05-21T15:21:20.929Z,21.37
2023-05-21T15:23:48.315Z,21.59
2023-05-21T15:26:15.550Z,21.67
2023-05-21T15:28:43.428Z,21.71
2023-05-21T15:31:11.334Z,21.54
2023-05-21T15:33:38.588Z,21.19
2023-05-21T15:36:06.244Z,21.33
2023-05-21T15:38:33.594Z,21.30
2023-05-21T15:41:00.831Z,21.22
2023-05-21T15:43:28.049Z,21.39
2023-05-21T15:45:55.386Z,21.45
2023-05-21T15:48:23.124Z,21.17
2023-05-21T15:50:50.649Z,21.36
2023-05-21T15:53:17.925Z,21.37
2023-05-21T15:55:45.569Z,21.46
2023-05-21T15:58:12.994Z,21.24
2023-05-21T16:00:40.428Z,21.01
2023-05-21T16:03:08.114Z,21.04
2023-05-21T16:05:36.031Z,21.11
2023-05-21T16:08:03.672Z,20.93
2023-05-21T16:10:31.416Z,20.94
2023-05-21T16:12:59.095Z,20.92
2023-05-21T16:15:28.463Z,21.23
2023-05-21T16:17:55.970Z,21.46
2023-05-21T16:20:23.413Z,21.11
2023-05-21T16:22:51.161Z,21.05
2023-05-21T16:25:18.408Z,20.81
2023-05-21T16:27:45.739Z,20.62
2023-05-21T16:30:14.221Z,20.66
2023-05-21T16:32:41.835Z,20.84
2023-05-21T16:35:09.232Z,20.89
2023-05-21T16:37:36.597Z,21.10
2023-05-21T16:40:04.696Z,21.23
2023-05-21T16:42:32.048Z,21.11
2023-05-21T16:44:59.366Z,21.15
2023-05-21T16:47:26.727Z,21.06
2023-05-21T16:49:55.855Z,21.07
2023-05-21T16:52:23.823Z,20.89
2023-05-21T16:54:51.397Z,20.72
2023-05-21T16:57:18.685Z,20.86
2023-05-21T16:59:45.978Z,20.78
2023-05-21T17:02:13.863Z,20.82
2023-05-21T17:04:41.284Z,20.72
2023-05-21T17:07:08.631Z,20.85
2023-05-21T17:09:35.980Z,20.70
2023-05-21T17:12:03.802Z,20.72
2023-05-21T17:14:34.281Z,20.83
2023-05-21T17:17:01.977Z,20.73
2023-05-21T17:19:29.441Z,20.96
2023-05-21T17:21:56.986Z,20.82
2023-05-21T17:24:24.509Z,20.76
2023-05-21T17:26:53.032Z,20.72
2023-05-21T17:29:20.336Z,20.74
2023-05-21T17:31:47.937Z,20.75
2023-05-21T17:34:16.770Z,20.80
2023-05-21T17:36:44.178Z,20.52
2023-05-21T17:39:11.514Z,20.44
2023-05-21T17:41:38.794Z,20.34
2023-05-21T17:44:06.131Z,20.38
2023-05-21T17:46:33.605Z,20.35
2023-05-21T17:49:00.839Z,20.30
2023-05-21T17:51:28.325Z,20.30
2023-05-21T17:53:56.123Z,20.11
2023-05-21T17:56:23.522Z,20.06
2023-05-21T17:58:51.056Z,19.90
2023-05-21T18:01:19.150Z,20.01
2023-05-21T18:03:46.677Z,20.21
2023-05-21T18:06:13.993Z,20.32
2023-05-21T18:08:41.318Z,20.06
2023-05-21T18:11:08.815Z,20.15
2023-05-21T18:13:36.120Z,19.83
2023-05-21T18:16:03.465Z,19.79
2023-05-21T18:18:30.929Z,20.01
2023-05-21T18:20:58.497Z,19.63
2023-05-21T18:23:28.536Z,19.58
2023-05-21T18:25:56.231Z,19.79
2023-05-21T18:28:23.473Z,19.77
2023-05-21T18:30:50.886Z,19.53
2023-05-21T18:33:18.290Z,19.62
2023-05-21T18:35:45.905Z,19.63
2023-05-21T18:38:13.508Z,19.66
2023-05-21T18:40:41.228Z,19.63
2023-05-21T18:43:10.839Z,19.89
2023-05-21T18:45:38.219Z,19.79
2023-05-21T18:48:05.882Z,19.90
2023-05-21T18:50:34.959Z,19.82
2023-05-21T18:53:02.768Z,19.74
2023-05-21T18:55:30.086Z,19.68
2023-05-21T18:57:57.392Z,19.62
2023-05-21T19:00:24.741Z,19.56
2023-05-21T19:02:52.187Z,19.49
2023-05-21T19:05:19.673Z,19.46
2023-05-21T19:07:47.428Z,19.20
2023-05-21T19:10:14.717Z,19.19
2023-05-21T19:12:43.412Z,19.16
2023-05-21T19:15:11.403Z,19.16
2023-05-21T19:17:39.924Z,19.11
2023-05-21T19:20:09.119Z,19.17
2023-05-21T19:22:37.231Z,19.44
2023-05-21T19:25:05.018Z,19.68
2023-05-21T19:27:32.434Z,19.46
2023-05-21T19:29:59.710Z,19.39
2023-05-21T19:32:27.171Z,19.09
2023-05-21T19:34:54.595Z,19.02
2023-05-21T19:37:22.302Z,18.90
2023-05-21T19:39:50.300Z,18.73
2023-05-21T19:42:18.516Z,18.85
2023-05-21T19:44:46.249Z,18.64
2023-05-21T19:47:13.810Z,18.39
2023-05-21T19:49:41.072Z,18.69
2023-05-21T19:52:08.743Z,18.67
2023-05-21T19:54:36.339Z,18.52
2023-05-21T19:57:03.820Z,18.42
2023-05-21T19:59:31.135Z,18.53
2023-05-21T20:01:58.686Z,18.32
2023-05-21T20:04:26.124Z,18.19
2023-05-21T20:06:53.517Z,18.16
2023-05-21T20:09:20.918Z,18.34
2023-05-21T20:11:48.715Z,18.36
2023-05-21T20:14:16.269Z,18.30
2023-05-21T20:16:47.211Z,18.14
2023-05-21T20:19:15.309Z,18.18
2023-05-21T20:21:42.939Z,18.28
2023-05-21T20:24:11.405Z,18.24
2023-05-21T20:26:39.798Z,18.16
2023-05-21T20:29:08.241Z,18.40
2023-05-21T20:31:36.047Z,18.23
2023-05-21T20:34:07.877Z,18.12
2023-05-21T20:36:36.429Z,18.04
2023-05-21T20:39:03.853Z,17.90
2023-05-21T20:41:37.380Z,18.05
2023-05-21T20:44:05.378Z,18.31
2023-05-21T20:46:33.102Z,18.38
2023-05-21T20:49:00.545Z,18.04
2023-05-21T20:51:27.831Z,17.77
2023-05-21T20:53:55.331Z,17.78
2023-05-21T20:56:40.016Z,17.70
2023-05-21T20:59:09.245Z,17.86
2023-05-21T21:01:39.243Z,17.97
2023-05-21T21:04:06.711Z,17.81
2023-05-21T21:06:34.895Z,17.79
2023-05-21T21:09:02.176Z,18.06
2023-05-21T21:11:29.436Z,17.72
2023-05-21T21:13:56.777Z,17.57
2023-05-21T21:16:24.142Z,17.61
2023-05-21T21:18:51.561Z,17.32
2023-05-21T21:21:19.462Z,17.37
2023-05-21T21:23:46.801Z,17.61
2023-05-21T21:26:14.112Z,17.54
2023-05-21T21:28:41.532Z,17.55
2023-05-21T21:31:08.878Z,17.22
2023-05-21T21:33:36.197Z,17.15
2023-05-21T21:36:03.694Z,17.11
2023-05-21T21:38:30.889Z,17.27
2023-05-21T21:40:58.131Z,17.24
2023-05-21T21:43:25.523Z,17.14
2023-05-21T21:45:52.821Z,16.97
2023-05-21T21:48:20.189Z,17.04
2023-05-21T21:50:47.562Z,17.11
2023-05-21T21:53:14.867Z,17.00
2023-05-21T21:55:42.238Z,17.09
2023-05-21T21:58:09.518Z,16.99
2023-05-21T22:00:37.431Z,16.93
2023-05-21T22:03:05.062Z,17.07
2023-05-21T22:05:32.680Z,16.88
2023-05-21T22:08:00.167Z,17.01
2023-05-21T22:10:27.533Z,17.01
2023-05-21T22:12:54.784Z,17.05
2023-05-21T22:15:28.705Z,17.11
2023-05-21T22:17:56.237Z,17.05
2023-05-21T22:20:23.600Z,17.09
2023-05-21T22:22:51.701Z,17.41
2023-05-21T22:25:19.821Z,17.55
2023-05-21T22:27:47.133Z,17.14
2023-05-21T22:30:14.486Z,17.31
2023-05-21T22:32:41.855Z,16.85
2023-05-21T22:35:09.668Z,16.68
2023-05-21T22:37:37.430Z,16.98
2023-05-21T22:40:08.614Z,17.11
2023-05-21T22:42:36.423Z,16.60
2023-05-21T22:45:04.314Z,16.32
2023-05-21T22:47:32.315Z,16.29
2023-05-21T22:50:00.845Z,15.96
2023-05-21T22:52:28.825Z,16.09
2023-05-21T22:54:57.837Z,15.93
2023-05-21T22:57:25.126Z,15.99
2023-05-21T22:59:52.516Z,15.74
2023-05-21T23:02:19.772Z,15.94
2023-05-21T23:04:48.361Z,16.08
2023-05-21T23:07:16.044Z,16.08
2023-05-21T23:09:43.475Z,16.00
2023-05-21T23:12:11.038Z,15.78
2023-05-21T23:14:38.368Z,15.83
2023-05-21T23:17:05.934Z,15.59
2023-05-21T23:19:33.565Z,15.75
2023-05-21T23:22:01.010Z,15.90
2023-05-21T23:24:29.564Z,15.69
2023-05-21T23:27:02.112Z,15.58
2023-05-21T23:29:30.397Z,15.79
2023-05-21T23:31:58.079Z,15.68
2023-05-21T23:34:25.751Z,15.99
2023-05-21T23:36:53.375Z,16.03
2023-05-21T23:39:21.172Z,16.08
2023-05-21T23:41:48.926Z,15.58
2023-05-21T23:44:16.381Z,15.42
2023-05-21T23:46:43.682Z,15.29
2023-05-21T23:49:11.591Z,15.48
2023-05-21T23:51:39.540Z,15.48
2023-05-21T23:54:08.000Z,15.42
2023-05-21T23:56:35.551Z,15.21
2023-05-21T23:59:02.884Z,15.13
